Marshallton, Delaware
Current Conditions -  °F | °C
As of 7:51 PM on Friday 24 Oct 2014 (Local Time) from KILG Reporting Station
Clear Clear  
Wind Chill: 61°   Ceiling: Unl
Heat Index: 61°   Visibility: 10mi
Dew Point: 37°   Wind: 10mph
Humidity: 41%   Direction: 280°W
Pressure: 29.88"   Gusts: NA
Location:  39.7388°N, 75.6642°W
Report Text: KILG 242351Z 28009KT 10SM CLR 16/03 A2988 RMK AO2 SLP117 T01610028 10211 20156 53013
Loading
Personal Weather Stations






























Interactive Weather Map
Tropical Storm Tracking
New forecast layout! Learn more

10-Day Weather Forecast

Advertisements
Track Severe Weather on mobile